Time;durP1;ratioP1;P1;durP2;ratioP2;P2;SDS_P1;SDS_P2;PMS_P1;PMS_P2;Temp;Humidity;BMP_temperature;BMP_pressure;BME280_temperature;BME280_humidity;BME280_pressure;Samples;Min_cycle;Max_cycle;Signal;HPM_P1;HPM_P2
2022/05/14 00:01:20;;;;;;;2.38;2.00;;;21.20;50.50;;;;;;4956439;28;20718;-74
2022/05/14 00:03:48;;;;;;;3.22;2.00;;;21.20;50.40;;;;;;4956220;28;20214;-74
2022/05/14 00:06:17;;;;;;;5.05;2.10;;;21.20;50.50;;;;;;4954713;29;20206;-73
2022/05/14 00:08:44;;;;;;;2.08;1.88;;;21.20;50.50;;;;;;4956140;28;20202;-74
2022/05/14 00:13:56;;;;;;;2.50;1.80;;;21.20;50.70;;;;;;4954923;28;20190;-74
2022/05/14 00:16:24;;;;;;;1.80;1.42;;;21.10;50.60;;;;;;4955904;28;20315;-73
2022/05/14 00:23:04;;;;;;;1.90;1.70;;;21.10;50.10;;;;;;4956537;29;20272;-72
2022/05/14 00:25:31;;;;;;;1.85;1.60;;;21.00;50.10;;;;;;4954974;28;20218;-72
2022/05/14 00:27:58;;;;;;;2.03;1.63;;;21.00;50.00;;;;;;4956303;28;20246;-73
2022/05/14 00:30:26;;;;;;;2.25;1.80;;;21.00;50.20;;;;;;4954642;28;20210;-72
2022/05/14 00:32:53;;;;;;;3.47;1.80;;;21.00;50.20;;;;;;4954621;29;20212;-73
2022/05/14 00:35:23;;;;;;;3.10;1.75;;;21.00;50.30;;;;;;4954578;29;20241;-73
2022/05/14 00:37:50;;;;;;;5.10;1.80;;;21.00;50.40;;;;;;4954528;28;20615;-72
2022/05/14 00:40:21;;;;;;;2.78;1.83;;;20.90;50.10;;;;;;4954659;28;20208;-73
2022/05/14 00:42:48;;;;;;;2.08;1.60;;;21.00;51.00;;;;;;4954192;28;20665;-72
2022/05/14 00:51:45;;;;;;;2.17;1.77;;;20.90;50.00;;;;;;4994858;28;20603;-72
2022/05/14 00:54:14;;;;;;;2.92;1.80;;;20.80;50.20;;;;;;4993073;28;20194;-72
2022/05/14 00:56:46;;;;;;;2.25;1.50;;;20.80;50.10;;;;;;4989199;28;20716;-72
2022/05/14 00:59:14;;;;;;;2.25;1.80;;;20.80;50.30;;;;;;4973764;28;20303;-72
2022/05/14 01:01:42;;;;;;;2.03;1.83;;;20.80;50.50;;;;;;4973972;28;20674;-72
2022/05/14 01:04:10;;;;;;;2.00;1.80;;;20.80;50.30;;;;;;4974875;28;20218;-72
2022/05/14 01:06:38;;;;;;;1.83;1.73;;;20.80;50.40;;;;;;4977415;28;20217;-72
2022/05/14 01:09:06;;;;;;;2.10;1.90;;;20.70;50.40;;;;;;4977397;28;20249;-72
2022/05/14 01:11:35;;;;;;;1.70;1.60;;;20.70;50.40;;;;;;4977608;28;20204;-70
2022/05/14 01:14:04;;;;;;;1.90;1.60;;;20.70;50.50;;;;;;4977781;28;20277;-72
2022/05/14 01:16:35;;;;;;;2.97;1.77;;;20.70;50.50;;;;;;4977412;28;20593;-72
2022/05/14 01:19:02;;;;;;;1.92;1.77;;;20.70;50.40;;;;;;4977344;28;20229;-72
2022/05/14 01:21:37;;;;;;;1.80;1.70;;;20.70;50.20;;;;;;4977638;28;20222;-72
2022/05/14 01:26:56;;;;;;;2.13;1.67;;;20.70;50.40;;;;;;4977547;28;20221;-72
2022/05/14 01:29:24;;;;;;;2.67;1.73;;;20.60;50.20;;;;;;4999608;28;20190;-72
2022/05/14 01:31:57;;;;;;;2.65;1.73;;;20.60;50.20;;;;;;5001515;28;20171;-71
2022/05/14 01:34:27;;;;;;;2.20;2.00;;;20.60;50.10;;;;;;4993548;28;20194;-71
2022/05/14 01:36:55;;;;;;;1.80;1.70;;;20.60;50.30;;;;;;4978476;28;20222;-72
2022/05/14 01:39:22;;;;;;;2.10;1.90;;;20.60;50.30;;;;;;4978987;28;20186;-71
2022/05/14 01:41:49;;;;;;;3.67;1.83;;;20.60;50.10;;;;;;4977797;28;20208;-72
2022/05/14 01:44:19;;;;;;;2.95;2.05;;;20.60;50.00;;;;;;4977371;28;20241;-72
2022/05/14 01:46:46;;;;;;;2.40;1.95;;;20.50;50.40;;;;;;4976974;28;20228;-72
2022/05/14 01:49:13;;;;;;;2.00;1.80;;;20.50;50.30;;;;;;4976914;28;20576;-72
2022/05/14 01:51:41;;;;;;;2.15;1.95;;;20.50;50.10;;;;;;4976944;28;20578;-72
2022/05/14 01:54:10;;;;;;;3.92;1.90;;;20.50;50.50;;;;;;4976798;28;20202;-72
2022/05/14 01:56:37;;;;;;;2.00;1.80;;;20.50;50.40;;;;;;4976996;28;20222;-71
2022/05/14 01:59:05;;;;;;;1.63;1.52;;;20.50;50.60;;;;;;4977348;28;20194;-72
2022/05/14 02:01:35;;;;;;;2.10;1.90;;;20.40;50.60;;;;;;4976957;28;20702;-72
2022/05/14 02:04:03;;;;;;;2.97;2.00;;;20.40;50.60;;;;;;4976994;28;20219;-72
2022/05/14 02:06:31;;;;;;;2.88;2.05;;;20.40;50.60;;;;;;4976785;28;20208;-70
2022/05/14 02:09:00;;;;;;;1.90;1.80;;;20.40;50.60;;;;;;4977634;28;20252;-72
2022/05/14 02:11:29;;;;;;;2.10;1.90;;;20.40;50.50;;;;;;4976819;28;20674;-72
2022/05/14 02:14:06;;;;;;;2.15;1.90;;;20.40;50.60;;;;;;4976713;28;20190;-72
2022/05/14 02:16:34;;;;;;;2.28;1.80;;;20.30;50.60;;;;;;4987495;28;20202;-73
2022/05/14 02:19:02;;;;;;;1.92;1.80;;;20.30;50.40;;;;;;5001349;28;20225;-73
2022/05/14 02:21:29;;;;;;;2.13;1.92;;;20.30;50.40;;;;;;5001214;28;20217;-74
2022/05/14 02:23:57;;;;;;;2.90;1.90;;;20.30;50.50;;;;;;5001060;28;20257;-73
2022/05/14 02:26:24;;;;;;;2.03;1.83;;;20.30;50.50;;;;;;5000580;28;20198;-73
2022/05/14 02:28:51;;;;;;;1.92;1.80;;;20.30;50.50;;;;;;4999773;28;20201;-72
2022/05/14 02:31:18;;;;;;;2.20;2.00;;;20.30;50.40;;;;;;5000495;28;20192;-72
2022/05/14 02:33:47;;;;;;;1.77;1.67;;;20.30;50.40;;;;;;4998003;28;20221;-72
2022/05/14 02:36:14;;;;;;;2.03;1.83;;;20.20;50.70;;;;;;4976602;28;20197;-73
2022/05/14 02:38:42;;;;;;;2.08;1.90;;;20.30;50.70;;;;;;4976720;28;20728;-72
2022/05/14 02:41:12;;;;;;;1.83;1.70;;;20.30;50.70;;;;;;4976197;28;20202;-72
2022/05/14 02:43:39;;;;;;;2.00;1.80;;;20.20;50.60;;;;;;4976016;28;20297;-72
2022/05/14 02:46:06;;;;;;;1.88;1.60;;;20.20;50.80;;;;;;4976365;28;20210;-72
2022/05/14 02:48:34;;;;;;;1.80;1.70;;;20.20;50.60;;;;;;4975776;28;20772;-72
2022/05/14 02:51:03;;;;;;;2.20;2.00;;;20.20;50.60;;;;;;4975719;28;20256;-72
2022/05/14 02:53:30;;;;;;;1.63;1.52;;;20.20;50.90;;;;;;4976307;28;20766;-72
2022/05/14 02:55:57;;;;;;;2.08;1.88;;;20.20;50.70;;;;;;4977012;28;20190;-72
2022/05/14 03:01:24;;;;;;;3.85;1.80;;;20.20;50.50;;;;;;4920258;29;20231;-71
2022/05/14 03:03:51;;;;;;;2.05;1.85;;;20.10;51.10;;;;;;4920249;29;20199;-72
2022/05/14 03:06:19;;;;;;;1.83;1.73;;;20.10;51.30;;;;;;4943047;28;20313;-72
2022/05/14 03:08:46;;;;;;;3.22;2.00;;;20.10;50.60;;;;;;4975495;28;20202;-72
2022/05/14 03:11:14;;;;;;;1.83;1.73;;;20.10;50.80;;;;;;4975332;28;20198;-72
2022/05/14 03:13:41;;;;;;;1.92;1.80;;;20.10;50.70;;;;;;4975319;28;20290;-72
2022/05/14 03:16:09;;;;;;;1.98;1.80;;;20.10;50.90;;;;;;4976493;28;20263;-72
2022/05/14 03:18:37;;;;;;;2.38;1.70;;;20.10;50.90;;;;;;4975390;28;20214;-72
2022/05/14 03:21:04;;;;;;;2.20;1.95;;;20.10;50.90;;;;;;4975225;28;20206;-72
2022/05/14 03:23:33;;;;;;;2.50;1.92;;;20.10;50.80;;;;;;4975572;28;20644;-72
2022/05/14 03:26:00;;;;;;;2.50;2.05;;;20.10;50.70;;;;;;4976015;28;20225;-72
2022/05/14 03:28:27;;;;;;;1.90;1.70;;;20.10;50.60;;;;;;4975048;28;20253;-72
2022/05/14 03:30:54;;;;;;;1.85;1.75;;;20.10;50.80;;;;;;4975324;28;20209;-72
2022/05/14 03:33:22;;;;;;;1.50;1.40;;;20.10;50.90;;;;;;4974971;28;20198;-72
2022/05/14 03:35:49;;;;;;;1.73;1.63;;;20.10;51.00;;;;;;4975336;28;20568;-72
2022/05/14 03:38:16;;;;;;;1.95;1.73;;;20.10;50.70;;;;;;4974992;28;20224;-72
2022/05/14 03:40:45;;;;;;;2.10;1.90;;;20.10;50.70;;;;;;4976312;28;20194;-72
2022/05/14 03:43:12;;;;;;;1.90;1.80;;;20.10;50.80;;;;;;4974885;28;20261;-72
2022/05/14 03:45:39;;;;;;;2.03;1.92;;;20.10;50.50;;;;;;4974950;28;20224;-72
2022/05/14 03:48:06;;;;;;;2.15;1.75;;;20.10;50.50;;;;;;4974901;28;20222;-72
2022/05/14 03:50:34;;;;;;;1.85;1.70;;;20.10;50.50;;;;;;4974685;28;20621;-71
2022/05/14 03:53:01;;;;;;;1.80;1.70;;;20.20;50.40;;;;;;4974724;28;20289;-72
2022/05/14 03:55:29;;;;;;;1.80;1.70;;;20.10;50.30;;;;;;4974445;28;20201;-71
2022/05/14 03:57:57;;;;;;;2.20;2.00;;;20.20;50.70;;;;;;4974321;28;20305;-71
2022/05/14 04:04:12;;;;;;;1.80;1.70;;;20.20;50.70;;;;;;4975747;28;20662;-72
2022/05/14 04:06:39;;;;;;;2.22;2.03;;;20.20;50.50;;;;;;4974230;28;20272;-72
2022/05/14 04:09:06;;;;;;;1.70;1.60;;;20.10;50.70;;;;;;4974436;28;20226;-72
2022/05/14 04:11:34;;;;;;;2.08;1.80;;;20.10;50.70;;;;;;4974429;28;20194;-72
2022/05/14 04:14:03;;;;;;;2.00;1.73;;;20.20;50.70;;;;;;4974263;28;20638;-72
2022/05/14 04:16:30;;;;;;;1.85;1.75;;;20.20;50.50;;;;;;4974221;28;20193;-72
2022/05/14 04:18:58;;;;;;;1.80;1.70;;;20.10;50.30;;;;;;4974617;28;20205;-72
2022/05/14 04:21:25;;;;;;;1.83;1.73;;;20.10;50.60;;;;;;4974503;28;20233;-72
2022/05/14 04:23:53;;;;;;;1.60;1.50;;;20.10;50.30;;;;;;4975567;28;20289;-72
2022/05/14 04:26:24;;;;;;;1.98;1.77;;;20.10;50.50;;;;;;4983543;28;20310;-71
2022/05/14 04:28:51;;;;;;;2.25;1.65;;;20.10;50.40;;;;;;4978647;28;20205;-71
2022/05/14 04:31:21;;;;;;;2.33;1.85;;;20.10;50.30;;;;;;4977315;28;20202;-71
2022/05/14 04:33:48;;;;;;;1.98;1.80;;;20.10;50.30;;;;;;4975083;28;20205;-70
2022/05/14 04:36:15;;;;;;;1.88;1.77;;;20.10;50.30;;;;;;4974759;28;20194;-70
2022/05/14 04:38:42;;;;;;;2.35;2.15;;;20.10;50.80;;;;;;4973550;28;20222;-70
2022/05/14 04:41:09;;;;;;;2.25;2.05;;;20.10;50.90;;;;;;4975358;28;20289;-72
2022/05/14 04:43:37;;;;;;;1.90;1.80;;;20.20;51.20;;;;;;4977179;28;20205;-69
2022/05/14 04:46:06;;;;;;;2.00;1.90;;;20.20;51.40;;;;;;4974394;28;20218;-72
2022/05/14 04:48:35;;;;;;;2.17;1.70;;;20.40;51.50;;;;;;4974137;28;20304;-71
2022/05/14 04:51:02;;;;;;;2.28;1.90;;;20.50;51.40;;;;;;4974775;28;20206;-69
2022/05/14 04:53:29;;;;;;;2.67;1.98;;;20.70;50.80;;;;;;4975708;28;20252;-72
2022/05/14 04:55:55;;;;;;;2.70;1.88;;;21.00;51.00;;;;;;4973535;28;20190;-72
2022/05/14 04:58:23;;;;;;;2.25;1.92;;;21.20;50.60;;;;;;4974165;28;20224;-72
2022/05/14 05:00:50;;;;;;;2.15;1.95;;;21.40;49.90;;;;;;4974210;28;20205;-72
2022/05/14 05:03:17;;;;;;;2.20;1.90;;;21.70;49.80;;;;;;4974060;28;20236;-70
2022/05/14 05:05:46;;;;;;;2.25;1.92;;;21.80;48.90;;;;;;4973584;28;20218;-72
2022/05/14 05:08:14;;;;;;;3.05;1.80;;;22.00;49.20;;;;;;4974054;28;20305;-72
2022/05/14 05:10:42;;;;;;;2.40;1.80;;;22.20;48.40;;;;;;4973779;28;20202;-72
2022/05/14 05:13:10;;;;;;;3.08;1.90;;;22.40;48.20;;;;;;4974644;28;20197;-73
2022/05/14 05:15:37;;;;;;;2.17;1.70;;;22.60;48.00;;;;;;4974676;28;20191;-72
2022/05/14 05:18:04;;;;;;;1.80;1.70;;;22.70;47.90;;;;;;4973616;28;20221;-72
2022/05/14 05:20:31;;;;;;;1.92;1.75;;;22.80;47.10;;;;;;4973663;28;20212;-71
2022/05/14 05:23:00;;;;;;;2.40;2.00;;;23.00;47.20;;;;;;4977758;28;20256;-73
2022/05/14 05:25:27;;;;;;;2.17;1.98;;;23.10;47.60;;;;;;4973354;28;20225;-72
2022/05/14 05:27:54;;;;;;;2.22;2.03;;;23.30;46.60;;;;;;4973716;28;20229;-72
2022/05/14 05:30:21;;;;;;;2.25;1.92;;;23.40;47.20;;;;;;4973563;28;20568;-73
2022/05/14 05:32:48;;;;;;;2.05;1.85;;;23.50;46.30;;;;;;4973664;28;20206;-72
2022/05/14 05:35:15;;;;;;;2.15;1.88;;;23.60;46.10;;;;;;4973467;28;20681;-72
2022/05/14 05:37:42;;;;;;;2.40;2.20;;;23.70;46.00;;;;;;4977227;28;20656;-72
2022/05/14 05:40:13;;;;;;;2.30;2.10;;;23.80;45.80;;;;;;4979839;28;20198;-72
2022/05/14 05:42:40;;;;;;;8.23;2.30;;;23.90;45.60;;;;;;4980275;28;20202;-72
2022/05/14 05:45:09;;;;;;;2.45;2.00;;;24.00;45.40;;;;;;4977316;28;20194;-72
2022/05/14 05:47:36;;;;;;;2.28;1.98;;;24.10;45.20;;;;;;4973857;28;20222;-72
2022/05/14 05:50:03;;;;;;;2.10;1.90;;;24.20;45.00;;;;;;4975782;28;20252;-69
2022/05/14 05:52:32;;;;;;;3.03;2.00;;;24.30;45.00;;;;;;4977906;28;20252;-68
2022/05/14 05:57:44;;;;;;;2.75;2.10;;;24.50;44.60;;;;;;4976264;28;20222;-68
2022/05/14 06:00:13;;;;;;;2.50;2.30;;;24.60;44.30;;;;;;4976927;28;20218;-69
2022/05/14 06:02:41;;;;;;;3.20;2.65;;;24.70;44.10;;;;;;4976355;28;20265;-69
2022/05/14 06:05:09;;;;;;;2.80;2.38;;;24.80;43.90;;;;;;4976083;28;20205;-69
2022/05/14 06:07:36;;;;;;;2.55;2.22;;;24.90;43.70;;;;;;4977505;28;20301;-69
2022/05/14 06:10:03;;;;;;;3.45;2.38;;;25.00;43.60;;;;;;4976281;28;20202;-69
2022/05/14 06:12:31;;;;;;;2.78;1.90;;;25.10;43.40;;;;;;4977376;28;20201;-69
2022/05/14 06:14:59;;;;;;;2.30;2.10;;;25.10;43.20;;;;;;4977333;28;20200;-69
2022/05/14 06:17:26;;;;;;;2.30;2.10;;;25.20;43.00;;;;;;4976022;28;20218;-69
2022/05/14 06:19:54;;;;;;;2.30;2.10;;;25.30;42.90;;;;;;4975963;28;20202;-69
2022/05/14 06:22:21;;;;;;;2.45;2.00;;;25.40;42.70;;;;;;4976135;28;20693;-69
2022/05/14 06:24:49;;;;;;;2.42;1.95;;;25.50;42.60;;;;;;4975945;28;20202;-69
2022/05/14 06:27:16;;;;;;;3.25;2.33;;;25.50;42.30;;;;;;4976088;28;20265;-69
2022/05/14 06:29:43;;;;;;;2.03;1.77;;;25.60;42.20;;;;;;4976161;28;20304;-69
2022/05/14 06:32:12;;;;;;;1.70;1.60;;;25.70;42.00;;;;;;4977470;28;20190;-69
2022/05/14 06:34:39;;;;;;;2.10;1.90;;;25.80;42.00;;;;;;4975818;28;20202;-69
2022/05/14 06:37:06;;;;;;;2.00;1.80;;;25.80;41.80;;;;;;4977137;28;20245;-69
2022/05/14 06:39:33;;;;;;;1.70;1.60;;;25.90;41.60;;;;;;4975718;28;20209;-69
2022/05/14 06:42:00;;;;;;;1.83;1.70;;;25.90;41.40;;;;;;4976711;28;20197;-69
2022/05/14 06:44:28;;;;;;;1.90;1.80;;;26.00;41.20;;;;;;4976023;28;20202;-69
2022/05/14 06:46:54;;;;;;;1.92;1.83;;;26.10;41.30;;;;;;4975510;28;20226;-70
2022/05/14 06:49:23;;;;;;;1.70;1.60;;;26.20;41.20;;;;;;4975752;28;20755;-69
2022/05/14 06:51:51;;;;;;;3.38;1.60;;;26.20;41.00;;;;;;4977503;28;20554;-69
2022/05/14 06:54:18;;;;;;;2.25;1.70;;;26.30;40.90;;;;;;4976954;28;20253;-69
2022/05/14 06:56:45;;;;;;;2.10;1.90;;;26.30;40.70;;;;;;4975762;28;20313;-69
2022/05/14 06:59:14;;;;;;;1.60;1.50;;;26.40;40.60;;;;;;4977198;28;20281;-67
2022/05/14 07:01:43;;;;;;;1.98;1.80;;;26.50;41.10;;;;;;4974697;28;20208;-67
2022/05/14 07:10:45;;;;;;;1.63;1.50;;;26.60;40.80;;;;;;4978279;28;20201;-68
2022/05/14 07:35:16;;;;;;;1.73;1.63;;;27.10;39.40;;;;;;5070083;23;20196;-70
2022/05/14 07:37:44;;;;;;;1.60;1.50;;;27.10;39.30;;;;;;4976416;28;20229;-72
2022/05/14 07:40:14;;;;;;;1.70;1.52;;;27.10;39.20;;;;;;4969032;28;20218;-72
2022/05/14 07:42:44;;;;;;;2.20;1.70;;;27.10;39.20;;;;;;4955248;28;20198;-72
2022/05/14 07:45:13;;;;;;;2.40;1.58;;;27.20;39.20;;;;;;4956758;28;20195;-72
2022/05/14 07:47:41;;;;;;;1.80;1.70;;;27.20;39.10;;;;;;4956546;28;20292;-72
2022/05/14 07:50:08;;;;;;;1.77;1.67;;;27.20;39.10;;;;;;4955189;28;20218;-71
2022/05/14 07:52:37;;;;;;;1.63;1.52;;;27.20;39.10;;;;;;4954950;28;20199;-72
2022/05/14 07:55:05;;;;;;;1.60;1.50;;;27.20;39.00;;;;;;4954874;28;20229;-72
2022/05/14 07:57:32;;;;;;;1.90;1.60;;;27.30;39.00;;;;;;4954893;28;20656;-72
2022/05/14 07:59:59;;;;;;;1.60;1.50;;;27.30;39.00;;;;;;4954817;28;20225;-71
2022/05/14 08:02:31;;;;;;;1.70;1.60;;;27.30;38.90;;;;;;4956030;28;20201;-72
2022/05/14 08:04:58;;;;;;;1.70;1.60;;;27.30;39.00;;;;;;4954636;28;20199;-72
2022/05/14 08:07:26;;;;;;;1.70;1.60;;;27.30;39.10;;;;;;4954698;28;20230;-72
2022/05/14 08:09:54;;;;;;;1.60;1.50;;;27.40;39.00;;;;;;4955799;28;20246;-74
2022/05/14 08:12:21;;;;;;;1.50;1.40;;;27.40;39.00;;;;;;4954470;28;20281;-72
2022/05/14 08:14:48;;;;;;;2.25;1.60;;;27.40;39.00;;;;;;4954569;28;20287;-72
2022/05/14 08:17:15;;;;;;;1.60;1.50;;;27.50;39.10;;;;;;4954409;28;20309;-73
2022/05/14 08:19:42;;;;;;;1.65;1.55;;;27.50;39.00;;;;;;4955684;28;20221;-72
2022/05/14 08:24:57;;;;;;;1.63;1.52;;;27.50;38.80;;;;;;4954317;28;20194;-74
2022/05/14 08:27:24;;;;;;;1.67;1.52;;;27.50;38.70;;;;;;4954255;28;20218;-74
2022/05/14 08:29:51;;;;;;;1.60;1.50;;;27.60;38.80;;;;;;4954233;28;20203;-74
2022/05/14 08:32:21;;;;;;;1.63;1.52;;;27.60;38.70;;;;;;4954257;28;20208;-74
2022/05/14 08:34:48;;;;;;;1.50;1.40;;;27.60;38.70;;;;;;4954548;28;20199;-72
2022/05/14 08:37:15;;;;;;;1.90;1.80;;;27.60;38.60;;;;;;4954252;28;20206;-72
2022/05/14 08:39:42;;;;;;;1.83;1.50;;;27.60;39.20;;;;;;4954086;28;20201;-70
2022/05/14 08:45:59;;;;;;;1.67;1.48;;;27.60;38.60;;;;;;4995687;28;20351;-72
2022/05/14 08:48:29;;;;;;;1.98;1.63;;;27.60;38.60;;;;;;4992892;28;20193;-72
2022/05/14 08:50:58;;;;;;;1.50;1.40;;;27.60;38.50;;;;;;4981034;28;20225;-72
2022/05/14 08:53:27;;;;;;;2.30;1.60;;;27.60;38.50;;;;;;4973167;28;20223;-72
2022/05/14 08:56:00;;;;;;;1.60;1.50;;;27.60;39.10;;;;;;4973205;28;20252;-71
2022/05/14 08:58:30;;;;;;;1.60;1.50;;;27.60;38.50;;;;;;4973319;28;20205;-72
2022/05/14 09:00:59;;;;;;;1.60;1.50;;;27.60;38.50;;;;;;4973361;28;20312;-72
2022/05/14 09:03:26;;;;;;;1.63;1.50;;;27.70;38.40;;;;;;4973406;28;20208;-72
2022/05/14 09:05:54;;;;;;;1.50;1.40;;;27.70;39.00;;;;;;4973100;28;20233;-71
2022/05/14 09:08:21;;;;;;;1.17;1.17;;;27.70;38.40;;;;;;4973389;28;20662;-71
2022/05/14 09:10:59;;;;;;;1.70;1.50;;;27.60;38.40;;;;;;4973039;28;20228;-72
2022/05/14 09:13:27;;;;;;;1.60;1.50;;;27.60;38.40;;;;;;4973257;28;20201;-72
2022/05/14 09:15:56;;;;;;;1.40;1.30;;;27.60;38.40;;;;;;4973296;28;20300;-71
2022/05/14 09:18:27;;;;;;;1.67;1.45;;;27.60;38.50;;;;;;4974398;28;20196;-72
2022/05/14 09:20:57;;;;;;;1.58;1.48;;;27.60;38.50;;;;;;4974410;28;20279;-72
2022/05/14 09:23:26;;;;;;;1.60;1.50;;;27.60;39.20;;;;;;4972995;28;20208;-72
2022/05/14 09:25:53;;;;;;;1.60;1.50;;;27.60;38.60;;;;;;4975303;28;20264;-71
2022/05/14 09:28:29;;;;;;;1.60;1.50;;;27.60;38.60;;;;;;4977965;28;20621;-72
2022/05/14 09:30:58;;;;;;;1.40;1.30;;;27.60;38.60;;;;;;4976714;28;20311;-72
2022/05/14 09:33:28;;;;;;;1.50;1.40;;;27.60;38.70;;;;;;4976547;28;20719;-72
2022/05/14 09:35:56;;;;;;;1.52;1.42;;;27.50;38.70;;;;;;4976789;28;20205;-72
2022/05/14 09:38:24;;;;;;;1.52;1.42;;;27.50;38.70;;;;;;4976478;28;20206;-72
2022/05/14 09:40:51;;;;;;;2.05;1.60;;;27.50;38.70;;;;;;4977807;28;20268;-72
2022/05/14 09:43:27;;;;;;;1.60;1.50;;;27.50;39.00;;;;;;4976564;28;20209;-72
2022/05/14 09:46:00;;;;;;;1.50;1.40;;;27.40;39.00;;;;;;4978060;28;20192;-72
2022/05/14 09:48:33;;;;;;;1.67;1.58;;;27.40;39.00;;;;;;4978044;28;20685;-72
2022/05/14 09:51:01;;;;;;;1.75;1.50;;;27.40;39.00;;;;;;4977841;28;20228;-71
2022/05/14 09:53:29;;;;;;;1.58;1.48;;;27.40;39.10;;;;;;4977290;28;20200;-71
2022/05/14 09:56:24;;;;;;;1.58;1.48;;;27.30;39.10;;;;;;4976276;28;20315;-72
2022/05/14 09:58:57;;;;;;;1.40;1.35;;;27.30;39.20;;;;;;4974295;28;20201;-72
2022/05/14 10:01:28;;;;;;;1.63;1.52;;;27.30;39.30;;;;;;4977322;28;20213;-72
2022/05/14 10:04:18;;;;;;;1.65;1.50;;;27.20;39.30;;;;;;4977706;28;20188;-72
2022/05/14 10:06:48;;;;;;;1.30;1.30;;;27.20;39.40;;;;;;4976494;28;20220;-72
2022/05/14 10:09:22;;;;;;;1.50;1.40;;;27.20;39.50;;;;;;4976411;28;20197;-72
2022/05/14 10:11:51;;;;;;;1.60;1.50;;;27.10;39.50;;;;;;4978106;28;20225;-72
2022/05/14 10:14:27;;;;;;;1.60;1.50;;;27.10;39.60;;;;;;4976158;28;20208;-72
2022/05/14 10:17:01;;;;;;;1.48;1.38;;;27.10;39.60;;;;;;4978245;28;20220;-72
2022/05/14 10:29:40;;;;;;;1.70;1.60;;;26.90;40.00;;;;;;4998268;28;20212;-72
2022/05/14 10:32:08;;;;;;;1.60;1.50;;;26.80;40.10;;;;;;4975952;28;20213;-72
2022/05/14 10:38:26;;;;;;;1.60;1.50;;;26.70;40.50;;;;;;4977183;28;20213;-72
2022/05/14 10:40:55;;;;;;;1.50;1.40;;;26.60;40.70;;;;;;4976835;28;20213;-72
2022/05/14 10:43:31;;;;;;;1.40;1.30;;;26.60;40.80;;;;;;4975770;28;20204;-72
2022/05/14 10:45:58;;;;;;;1.60;1.50;;;26.50;40.90;;;;;;4976447;28;20197;-72
2022/05/14 10:48:31;;;;;;;1.52;1.40;;;26.50;41.10;;;;;;4975826;28;20210;-72
2022/05/14 10:54:47;;;;;;;1.20;1.20;;;26.30;41.20;;;;;;4978842;28;20218;-72
2022/05/14 10:57:27;;;;;;;1.35;1.30;;;26.20;41.30;;;;;;4976286;28;20217;-72
2022/05/14 10:59:57;;;;;;;1.50;1.40;;;26.20;41.40;;;;;;4975739;28;20224;-72
2022/05/14 11:02:25;;;;;;;1.85;1.42;;;26.20;41.40;;;;;;4977712;28;20182;-72
2022/05/14 11:04:53;;;;;;;1.45;1.35;;;26.20;41.50;;;;;;4975694;28;20197;-72
2022/05/14 11:07:28;;;;;;;1.20;1.20;;;26.20;41.60;;;;;;4975649;28;20260;-72
2022/05/14 11:10:07;;;;;;;1.42;1.33;;;26.10;41.70;;;;;;4975123;28;20217;-72
2022/05/14 11:12:34;;;;;;;1.67;1.58;;;26.10;41.80;;;;;;4975675;28;20198;-72
2022/05/14 11:15:02;;;;;;;1.50;1.40;;;26.10;41.80;;;;;;4975503;28;20194;-72
2022/05/14 11:17:30;;;;;;;1.75;1.50;;;26.10;41.90;;;;;;4975130;28;20288;-72
2022/05/14 11:20:08;;;;;;;1.70;1.60;;;26.00;41.80;;;;;;4974851;28;20222;-72
2022/05/14 11:22:36;;;;;;;1.42;1.33;;;26.00;41.90;;;;;;4974820;28;20198;-72
2022/05/14 11:25:11;;;;;;;1.50;1.40;;;26.10;42.00;;;;;;4974662;28;20240;-72
2022/05/14 11:27:39;;;;;;;1.60;1.50;;;26.10;42.00;;;;;;4974880;28;20209;-72
2022/05/14 11:32:50;;;;;;;1.40;1.30;;;26.00;42.00;;;;;;4974287;28;20206;-73
2022/05/14 11:35:18;;;;;;;1.60;1.50;;;26.00;42.70;;;;;;4976045;28;20644;-72
2022/05/14 11:37:48;;;;;;;1.92;1.45;;;26.00;42.10;;;;;;4975902;28;20508;-72
2022/05/14 11:40:29;;;;;;;1.38;1.30;;;26.00;42.20;;;;;;4975165;28;20566;-72
2022/05/14 11:43:11;;;;;;;1.52;1.42;;;26.00;42.20;;;;;;4976089;28;20182;-72
2022/05/14 11:45:40;;;;;;;1.65;1.40;;;26.00;42.20;;;;;;5157887;23;20232;-71
2022/05/14 11:48:09;;;;;;;1.67;1.55;;;25.90;42.30;;;;;;5058159;23;20740;-71
2022/05/14 11:50:37;;;;;;;2.88;1.30;;;25.90;42.00;;;;;;5219732;23;20219;-69
2022/05/14 11:53:18;;;;;;;2.80;1.50;;;25.90;42.20;;;;;;4977320;28;20252;-73
2022/05/14 11:55:49;;;;;;;2.55;1.70;;;25.90;42.30;;;;;;5146808;23;20324;-72
2022/05/14 11:58:19;;;;;;;1.60;1.42;;;25.90;41.20;;;;;;4956926;28;20202;-71
2022/05/14 12:00:46;;;;;;;1.50;1.40;;;25.80;41.10;;;;;;4955334;28;20212;-71
2022/05/14 12:03:15;;;;;;;4.35;1.80;;;25.80;41.60;;;;;;4954828;28;20201;-71
2022/05/14 12:35:52;;;;;;;2.40;1.80;;;25.40;39.20;;;;;;4984360;28;20225;-69
2022/05/14 12:38:21;;;;;;;2.58;1.67;;;25.40;41.10;;;;;;5184064;23;20240;-69
2022/05/14 12:40:48;;;;;;;3.30;1.90;;;25.30;39.80;;;;;;5216281;23;20293;-70
2022/05/14 12:43:15;;;;;;;6.85;2.22;;;25.30;39.50;;;;;;4992513;28;20607;-72
2022/05/14 12:45:44;;;;;;;4.50;1.88;;;25.30;39.10;;;;;;4979285;28;20253;-72
2022/05/14 12:48:13;;;;;;;3.13;1.70;;;25.30;39.40;;;;;;4953573;28;20246;-72
2022/05/14 12:50:41;;;;;;;3.10;1.80;;;25.30;39.30;;;;;;4953361;28;20230;-71
2022/05/14 12:53:11;;;;;;;2.13;1.50;;;25.30;38.90;;;;;;5219189;23;20244;-72
2022/05/14 12:55:39;;;;;;;1.85;1.70;;;25.20;39.70;;;;;;4974814;28;20577;-71
2022/05/14 12:58:06;;;;;;;3.58;1.70;;;25.20;39.40;;;;;;5129359;23;20241;-71
2022/05/14 13:00:35;;;;;;;2.30;1.75;;;25.20;40.00;;;;;;4978483;28;20190;-72
2022/05/14 13:03:07;;;;;;;2.30;1.73;;;25.20;39.90;;;;;;4973370;28;20240;-72
2022/05/14 13:05:37;;;;;;;2.50;1.75;;;25.20;37.60;;;;;;5188301;23;20204;-72
2022/05/14 13:08:07;;;;;;;4.28;1.83;;;25.20;38.40;;;;;;5327570;23;20801;-72
2022/05/14 13:13:09;;;;;;;2.00;1.80;;;25.20;38.60;;;;;;5080528;23;20275;-72
2022/05/14 13:15:38;;;;;;;3.00;1.65;;;25.20;38.80;;;;;;4988984;28;20217;-72
2022/05/14 13:18:14;;;;;;;5.10;1.98;;;25.20;38.90;;;;;;4973781;28;20205;-72
2022/05/14 13:20:41;;;;;;;3.88;1.77;;;25.20;39.00;;;;;;4973697;28;20300;-72
2022/05/14 13:23:12;;;;;;;2.35;1.58;;;25.20;39.30;;;;;;4975294;28;20277;-72
2022/05/14 13:25:40;;;;;;;1.95;1.50;;;25.30;39.30;;;;;;4976233;28;20210;-72
2022/05/14 13:28:15;;;;;;;2.28;1.75;;;25.20;39.40;;;;;;4973602;28;20268;-72
2022/05/14 13:30:42;;;;;;;2.08;1.40;;;25.10;38.50;;;;;;4974948;28;20206;-72
2022/05/14 13:33:11;;;;;;;3.08;1.50;;;25.10;39.40;;;;;;4973596;28;20548;-72
2022/05/14 13:38:30;;;;;;;3.03;1.73;;;25.10;38.10;;;;;;4974539;28;20171;-72
2022/05/14 13:40:58;;;;;;;2.63;1.58;;;25.10;39.00;;;;;;4974683;28;20190;-72
2022/05/14 13:43:29;;;;;;;2.25;1.55;;;25.10;38.40;;;;;;4972993;28;20383;-72
2022/05/14 13:45:56;;;;;;;2.45;1.70;;;25.20;38.80;;;;;;4974305;28;20214;-72
2022/05/14 13:48:30;;;;;;;2.28;1.58;;;25.20;38.70;;;;;;4974326;28;20555;-71
2022/05/14 13:51:00;;;;;;;3.47;1.80;;;25.20;38.40;;;;;;4973226;28;20635;-72
2022/05/14 13:53:30;;;;;;;2.65;1.80;;;25.20;38.50;;;;;;4974309;28;20205;-72
2022/05/14 13:56:01;;;;;;;1.85;1.60;;;25.20;36.70;;;;;;4973975;28;20218;-71
2022/05/14 13:58:29;;;;;;;2.40;1.77;;;25.20;36.60;;;;;;4972916;28;20229;-71
2022/05/14 14:00:59;;;;;;;3.60;1.75;;;25.30;37.00;;;;;;4973319;28;20244;-71
2022/05/14 14:03:28;;;;;;;2.17;1.40;;;25.20;36.90;;;;;;4972932;28;20663;-71
2022/05/14 14:05:55;;;;;;;1.83;1.50;;;25.20;37.90;;;;;;4973064;28;20245;-71
2022/05/14 14:08:26;;;;;;;2.38;1.75;;;25.20;38.10;;;;;;4974622;28;20213;-72
2022/05/14 14:10:54;;;;;;;2.28;1.60;;;25.20;38.20;;;;;;4973931;28;20647;-71
2022/05/14 14:13:21;;;;;;;1.63;1.52;;;25.20;38.10;;;;;;4976254;28;20202;-71
2022/05/14 14:15:48;;;;;;;2.47;1.70;;;25.10;38.00;;;;;;4976298;28;20588;-71
2022/05/14 14:18:16;;;;;;;1.95;1.52;;;25.20;37.90;;;;;;5103569;23;20856;-70
2022/05/14 14:23:14;;;;;;;4.25;1.58;;;25.20;37.80;;;;;;4974692;28;20213;-72
2022/05/14 14:25:43;;;;;;;4.32;2.03;;;25.10;36.30;;;;;;4977389;28;20300;-72
2022/05/14 14:28:11;;;;;;;2.83;1.88;;;25.10;36.40;;;;;;5108105;23;20325;-71
2022/05/14 14:30:38;;;;;;;2.88;1.48;;;25.10;36.20;;;;;;4996473;28;20194;-71
2022/05/14 14:38:21;;;;;;;4.00;1.70;;;25.00;37.80;;;;;;5114711;23;20237;-72
2022/05/14 14:40:49;;;;;;;3.88;1.60;;;25.00;38.10;;;;;;4995350;28;20225;-72
2022/05/14 14:43:17;;;;;;;2.10;1.42;;;25.00;38.40;;;;;;4995488;28;20202;-71
2022/05/14 14:45:45;;;;;;;2.20;1.40;;;25.00;38.60;;;;;;4990677;28;20229;-72
2022/05/14 14:48:12;;;;;;;2.05;1.65;;;25.00;38.70;;;;;;4976259;28;20320;-72
2022/05/14 14:50:39;;;;;;;1.95;1.58;;;25.00;39.00;;;;;;4977366;28;20186;-72
2022/05/14 14:53:06;;;;;;;3.47;1.45;;;25.00;39.20;;;;;;4975810;28;20213;-72
2022/05/14 14:55:33;;;;;;;2.15;1.73;;;25.10;39.30;;;;;;4975892;28;20642;-72
2022/05/14 14:58:02;;;;;;;3.53;1.63;;;25.00;39.50;;;;;;4975491;28;20198;-72
2022/05/14 15:00:30;;;;;;;3.65;1.67;;;25.00;39.60;;;;;;4975593;28;20204;-72